AAY983 KPIE-KEYW
Flight info
| Callsign | AAY983 |
|---|---|
| Flight time | 0h 44m |
| Altitude | 21000 |
| Route | SABEE KRAKN1 |
| Aircraft | A319/M-VGDW/C |
Departure
| Time | 2026-04-24 00:26 |
|---|---|
| Airport | St. Petersburg Clearwater International Airport (KPIE) |
Arrival
| Time | 2026-04-24 01:11 |
|---|---|
| Airport | Key West International Airport (KEYW) |
| Time | Latitude | Longitude | Altitude | Speed | Heading |
|---|---|---|---|---|---|
| 2026-04-24 00:02 | 27.90739 | -82.69339 | 25 ft | 0 kts | 178° |
| 2026-04-24 00:17 | 27.90749 | -82.69339 | 26 ft | 3 kts | 178° |
| 2026-04-24 00:17 | 27.90768 | -82.69340 | 27 ft | 3 kts | 178° |
| 2026-04-24 00:17 | 27.90787 | -82.69340 | 26 ft | 3 kts | 178° |
| 2026-04-24 00:17 | 27.90806 | -82.69342 | 26 ft | 3 kts | 153° |
| 2026-04-24 00:18 | 27.90820 | -82.69356 | 26 ft | 3 kts | 108° |
| 2026-04-24 00:18 | 27.90822 | -82.69377 | 24 ft | 2 kts | 76° |
| 2026-04-24 00:18 | 27.90821 | -82.69380 | 24 ft | 0 kts | 76° |
| 2026-04-24 00:20 | 27.90821 | -82.69378 | 24 ft | 1 kts | 76° |
| 2026-04-24 00:20 | 27.90828 | -82.69349 | 24 ft | 6 kts | 76° |
| 2026-04-24 00:21 | 27.90833 | -82.69286 | 24 ft | 10 kts | 87° |
| 2026-04-24 00:21 | 27.90834 | -82.69196 | 24 ft | 13 kts | 89° |
| 2026-04-24 00:21 | 27.90837 | -82.69087 | 24 ft | 14 kts | 87° |
| 2026-04-24 00:21 | 27.90828 | -82.68978 | 27 ft | 14 kts | 127° |
| 2026-04-24 00:22 | 27.90738 | -82.68949 | 26 ft | 14 kts | 172° |
| 2026-04-24 00:22 | 27.90640 | -82.68933 | 24 ft | 14 kts | 172° |
| 2026-04-24 00:22 | 27.90539 | -82.68915 | 24 ft | 15 kts | 170° |
| 2026-04-24 00:22 | 27.90430 | -82.68896 | 24 ft | 17 kts | 171° |
| 2026-04-24 00:23 | 27.90310 | -82.68874 | 24 ft | 18 kts | 171° |
| 2026-04-24 00:23 | 27.90176 | -82.68854 | 23 ft | 20 kts | 179° |
| 2026-04-24 00:23 | 27.90025 | -82.68864 | 21 ft | 23 kts | 182° |
| 2026-04-24 00:23 | 27.89867 | -82.68852 | 23 ft | 22 kts | 170° |
| 2026-04-24 00:24 | 27.89717 | -82.68823 | 24 ft | 19 kts | 156° |
| 2026-04-24 00:24 | 27.89698 | -82.68723 | 22 ft | 6 kts | 79° |
| 2026-04-24 00:24 | 27.89699 | -82.68718 | 22 ft | 0 kts | 79° |
| 2026-04-24 00:25 | 27.89703 | -82.68694 | 21 ft | 10 kts | 79° |
| 2026-04-24 00:25 | 27.89767 | -82.68620 | 19 ft | 16 kts | 355° |
| 2026-04-24 00:25 | 27.89787 | -82.68624 | 19 ft | 1 kts | 349° |
| 2026-04-24 00:25 | 27.89871 | -82.68642 | 20 ft | 40 kts | 351° |
| 2026-04-24 00:26 | 27.90410 | -82.68737 | 24 ft | 113 kts | 351° |
| 2026-04-24 00:26 | 27.91385 | -82.68899 | 58 ft | 164 kts | 350° |
| 2026-04-24 00:26 | 27.92520 | -82.69097 | 719 ft | 168 kts | 348° |
| 2026-04-24 00:26 | 27.93700 | -82.69317 | 1443 ft | 174 kts | 349° |
| 2026-04-24 00:27 | 27.94907 | -82.69564 | 2072 ft | 181 kts | 349° |
| 2026-04-24 00:27 | 27.96224 | -82.69798 | 2429 ft | 203 kts | 353° |
| 2026-04-24 00:27 | 27.97703 | -82.70043 | 2854 ft | 226 kts | 350° |
| 2026-04-24 00:27 | 27.99214 | -82.70812 | 3278 ft | 254 kts | 327° |
| 2026-04-24 00:28 | 28.00782 | -82.71885 | 3928 ft | 271 kts | 328° |
| 2026-04-24 00:28 | 28.02107 | -82.73448 | 4807 ft | 282 kts | 300° |
| 2026-04-24 00:28 | 28.02672 | -82.75568 | 5757 ft | 286 kts | 272° |
| 2026-04-24 00:28 | 28.02599 | -82.77821 | 6758 ft | 287 kts | 261° |
| 2026-04-24 00:29 | 28.01988 | -82.79963 | 7740 ft | 288 kts | 239° |
| 2026-04-24 00:29 | 28.00695 | -82.81670 | 8701 ft | 287 kts | 216° |
| 2026-04-24 00:29 | 27.98899 | -82.82644 | 9728 ft | 290 kts | 194° |
| 2026-04-24 00:29 | 27.96896 | -82.82719 | 10684 ft | 297 kts | 171° |
| 2026-04-24 00:30 | 27.94946 | -82.81861 | 11466 ft | 310 kts | 151° |
| 2026-04-24 00:30 | 27.93043 | -82.80525 | 11787 ft | 334 kts | 148° |
| 2026-04-24 00:30 | 27.91031 | -82.79038 | 11971 ft | 353 kts | 147° |
| 2026-04-24 00:30 | 27.88963 | -82.77484 | 12016 ft | 359 kts | 147° |
| 2026-04-24 00:31 | 27.86884 | -82.75920 | 12019 ft | 359 kts | 148° |
| 2026-04-24 00:31 | 27.84796 | -82.74362 | 12019 ft | 360 kts | 148° |
| 2026-04-24 00:31 | 27.82703 | -82.72817 | 12020 ft | 360 kts | 148° |
| 2026-04-24 00:31 | 27.80601 | -82.71278 | 12000 ft | 360 kts | 148° |
| 2026-04-24 00:32 | 27.78488 | -82.69738 | 12144 ft | 365 kts | 148° |
| 2026-04-24 00:32 | 27.76374 | -82.68200 | 12979 ft | 367 kts | 149° |
| 2026-04-24 00:32 | 27.74217 | -82.66633 | 13773 ft | 371 kts | 149° |
| 2026-04-24 00:32 | 27.72034 | -82.65044 | 14440 ft | 375 kts | 149° |
| 2026-04-24 00:33 | 27.69825 | -82.63431 | 15127 ft | 379 kts | 149° |
| 2026-04-24 00:33 | 27.67600 | -82.61806 | 15790 ft | 383 kts | 149° |
| 2026-04-24 00:33 | 27.65347 | -82.60160 | 16456 ft | 387 kts | 149° |
| 2026-04-24 00:33 | 27.63073 | -82.58498 | 17092 ft | 391 kts | 149° |
| 2026-04-24 00:34 | 27.60774 | -82.56819 | 17750 ft | 395 kts | 149° |
| 2026-04-24 00:34 | 27.58455 | -82.55128 | 18393 ft | 399 kts | 149° |
| 2026-04-24 00:34 | 27.56102 | -82.53418 | 18964 ft | 403 kts | 149° |
| 2026-04-24 00:34 | 27.53737 | -82.51700 | 19525 ft | 407 kts | 149° |
| 2026-04-24 00:35 | 27.51345 | -82.49965 | 20089 ft | 411 kts | 149° |
| 2026-04-24 00:35 | 27.48931 | -82.48210 | 20651 ft | 415 kts | 149° |
| 2026-04-24 00:35 | 27.46527 | -82.46462 | 20963 ft | 417 kts | 149° |
| 2026-04-24 00:35 | 27.44075 | -82.44679 | 21044 ft | 426 kts | 149° |
| 2026-04-24 00:36 | 27.41550 | -82.42846 | 21055 ft | 436 kts | 149° |
| 2026-04-24 00:36 | 27.38995 | -82.40992 | 21053 ft | 438 kts | 149° |
| 2026-04-24 00:36 | 27.36429 | -82.39131 | 21053 ft | 439 kts | 149° |
| 2026-04-24 00:36 | 27.33861 | -82.37270 | 21054 ft | 439 kts | 149° |
| 2026-04-24 00:37 | 27.31295 | -82.35408 | 21055 ft | 439 kts | 149° |
| 2026-04-24 00:37 | 27.28726 | -82.33547 | 21055 ft | 438 kts | 149° |
| 2026-04-24 00:37 | 27.26164 | -82.31694 | 21056 ft | 438 kts | 149° |
| 2026-04-24 00:37 | 27.23600 | -82.29839 | 21056 ft | 438 kts | 149° |
| 2026-04-24 00:38 | 27.21036 | -82.27986 | 21056 ft | 438 kts | 149° |
| 2026-04-24 00:38 | 27.18469 | -82.26133 | 21054 ft | 438 kts | 149° |
| 2026-04-24 00:38 | 27.15905 | -82.24284 | 21050 ft | 438 kts | 149° |
| 2026-04-24 00:38 | 27.13345 | -82.22439 | 21053 ft | 437 kts | 149° |
| 2026-04-24 00:39 | 27.10760 | -82.20645 | 21049 ft | 436 kts | 154° |
| 2026-04-24 00:39 | 27.08033 | -82.19292 | 21052 ft | 433 kts | 163° |
| 2026-04-24 00:39 | 27.05130 | -82.18448 | 21066 ft | 430 kts | 172° |
| 2026-04-24 00:39 | 27.02182 | -82.17885 | 21072 ft | 429 kts | 173° |
| 2026-04-24 00:40 | 26.99239 | -82.17318 | 21074 ft | 429 kts | 173° |
| 2026-04-24 00:40 | 26.96294 | -82.16744 | 21077 ft | 429 kts | 172° |
| 2026-04-24 00:40 | 26.93353 | -82.16169 | 21074 ft | 429 kts | 172° |
| 2026-04-24 00:40 | 26.90417 | -82.15594 | 21076 ft | 428 kts | 172° |
| 2026-04-24 00:41 | 26.87479 | -82.15020 | 21077 ft | 428 kts | 172° |
| 2026-04-24 00:41 | 26.84544 | -82.14449 | 21071 ft | 428 kts | 172° |
| 2026-04-24 00:41 | 26.81605 | -82.13880 | 21075 ft | 428 kts | 172° |
| 2026-04-24 00:41 | 26.78664 | -82.13311 | 21073 ft | 429 kts | 172° |
| 2026-04-24 00:42 | 26.75721 | -82.12743 | 21073 ft | 428 kts | 172° |
| 2026-04-24 00:42 | 26.72793 | -82.12135 | 21072 ft | 429 kts | 171° |
| 2026-04-24 00:42 | 26.69870 | -82.11466 | 21067 ft | 429 kts | 170° |
| 2026-04-24 00:42 | 26.66955 | -82.10765 | 21056 ft | 428 kts | 170° |
| 2026-04-24 00:43 | 26.64041 | -82.10051 | 21055 ft | 429 kts | 170° |
| 2026-04-24 00:43 | 26.61121 | -82.09340 | 21054 ft | 429 kts | 170° |
| 2026-04-24 00:43 | 26.58202 | -82.08639 | 21054 ft | 429 kts | 170° |
| 2026-04-24 00:43 | 26.55283 | -82.07950 | 21050 ft | 429 kts | 170° |
| 2026-04-24 00:44 | 26.52425 | -82.07118 | 21052 ft | 431 kts | 163° |
| 2026-04-24 00:44 | 26.49633 | -82.05886 | 21053 ft | 432 kts | 160° |
| 2026-04-24 00:44 | 26.46851 | -82.04619 | 21051 ft | 432 kts | 160° |
| 2026-04-24 00:44 | 26.44068 | -82.03350 | 21049 ft | 432 kts | 160° |
| 2026-04-24 00:45 | 26.41288 | -82.02079 | 21052 ft | 432 kts | 160° |
| 2026-04-24 00:45 | 26.38511 | -82.00810 | 21049 ft | 431 kts | 160° |
| 2026-04-24 00:45 | 26.35729 | -81.99542 | 21050 ft | 431 kts | 160° |
| 2026-04-24 00:45 | 26.32952 | -81.98280 | 21049 ft | 431 kts | 160° |
| 2026-04-24 00:46 | 26.30175 | -81.97018 | 21048 ft | 431 kts | 160° |
| 2026-04-24 00:46 | 26.27397 | -81.95756 | 21055 ft | 431 kts | 159° |
| 2026-04-24 00:46 | 26.24612 | -81.94493 | 21055 ft | 431 kts | 159° |
| 2026-04-24 00:46 | 26.21831 | -81.93230 | 21050 ft | 431 kts | 159° |
| 2026-04-24 00:47 | 26.19054 | -81.91968 | 21055 ft | 431 kts | 159° |
| 2026-04-24 00:47 | 26.16276 | -81.90705 | 21058 ft | 431 kts | 159° |
| 2026-04-24 00:47 | 26.13500 | -81.89443 | 21058 ft | 431 kts | 159° |
| 2026-04-24 00:47 | 26.10722 | -81.88181 | 21054 ft | 431 kts | 159° |
| 2026-04-24 00:48 | 26.07950 | -81.86924 | 21063 ft | 431 kts | 159° |
| 2026-04-24 00:48 | 26.05174 | -81.85666 | 21061 ft | 431 kts | 159° |
| 2026-04-24 00:48 | 26.02395 | -81.84407 | 21061 ft | 431 kts | 159° |
| 2026-04-24 00:48 | 25.99620 | -81.83150 | 21065 ft | 431 kts | 159° |
| 2026-04-24 00:49 | 25.96839 | -81.81892 | 21073 ft | 431 kts | 159° |
| 2026-04-24 00:49 | 25.94063 | -81.80640 | 21075 ft | 431 kts | 159° |
| 2026-04-24 00:49 | 25.91272 | -81.79383 | 21073 ft | 431 kts | 160° |
| 2026-04-24 00:49 | 25.88544 | -81.77999 | 21071 ft | 432 kts | 152° |
| 2026-04-24 00:50 | 25.85978 | -81.76263 | 20944 ft | 429 kts | 149° |
| 2026-04-24 00:50 | 25.83456 | -81.74522 | 20697 ft | 425 kts | 149° |
| 2026-04-24 00:50 | 25.80957 | -81.72796 | 20454 ft | 422 kts | 149° |
| 2026-04-24 00:50 | 25.78469 | -81.71082 | 20212 ft | 420 kts | 149° |
| 2026-04-24 00:51 | 25.75996 | -81.69379 | 19973 ft | 418 kts | 149° |
| 2026-04-24 00:51 | 25.73531 | -81.67683 | 19735 ft | 416 kts | 150° |
| 2026-04-24 00:51 | 25.71101 | -81.66017 | 19503 ft | 415 kts | 150° |
| 2026-04-24 00:51 | 25.68623 | -81.64319 | 19261 ft | 413 kts | 150° |
| 2026-04-24 00:52 | 25.66182 | -81.62646 | 19032 ft | 411 kts | 150° |
| 2026-04-24 00:52 | 25.63754 | -81.60979 | 18800 ft | 410 kts | 150° |
| 2026-04-24 00:52 | 25.61337 | -81.59316 | 18570 ft | 408 kts | 150° |
| 2026-04-24 00:52 | 25.58926 | -81.57662 | 18341 ft | 407 kts | 150° |
| 2026-04-24 00:53 | 25.56526 | -81.56017 | 18083 ft | 405 kts | 150° |
| 2026-04-24 00:53 | 25.54086 | -81.54471 | 17813 ft | 402 kts | 158° |
| 2026-04-24 00:53 | 25.51460 | -81.53469 | 17559 ft | 398 kts | 169° |
| 2026-04-24 00:53 | 25.48731 | -81.53088 | 17303 ft | 393 kts | 181° |
| 2026-04-24 00:54 | 25.46025 | -81.53322 | 17042 ft | 388 kts | 193° |
| 2026-04-24 00:54 | 25.43446 | -81.54140 | 16791 ft | 384 kts | 204° |
| 2026-04-24 00:54 | 25.40987 | -81.55280 | 16532 ft | 383 kts | 205° |
| 2026-04-24 00:54 | 25.38536 | -81.56417 | 16289 ft | 381 kts | 205° |
| 2026-04-24 00:55 | 25.36099 | -81.57544 | 15983 ft | 376 kts | 205° |
| 2026-04-24 00:55 | 25.33728 | -81.58639 | 15481 ft | 372 kts | 205° |
| 2026-04-24 00:55 | 25.31315 | -81.59755 | 14958 ft | 369 kts | 205° |
| 2026-04-24 00:55 | 25.28951 | -81.60848 | 14424 ft | 367 kts | 205° |
| 2026-04-24 00:56 | 25.26630 | -81.61920 | 13898 ft | 365 kts | 205° |
| 2026-04-24 00:56 | 25.24291 | -81.63000 | 13297 ft | 363 kts | 205° |
| 2026-04-24 00:56 | 25.21970 | -81.64070 | 12749 ft | 359 kts | 205° |
| 2026-04-24 00:56 | 25.19673 | -81.65130 | 12194 ft | 356 kts | 205° |
| 2026-04-24 00:57 | 25.17395 | -81.66179 | 11634 ft | 353 kts | 204° |
| 2026-04-24 00:57 | 25.15139 | -81.67217 | 11072 ft | 350 kts | 204° |
| 2026-04-24 00:57 | 25.11485 | -81.68897 | 10681 ft | 330 kts | 204° |
| 2026-04-24 00:58 | 25.09413 | -81.69852 | 10559 ft | 316 kts | 204° |
| 2026-04-24 00:58 | 25.07425 | -81.70769 | 10446 ft | 304 kts | 204° |
| 2026-04-24 00:58 | 25.05505 | -81.71654 | 10275 ft | 294 kts | 204° |
| 2026-04-24 00:58 | 25.03636 | -81.72514 | 10164 ft | 289 kts | 204° |
| 2026-04-24 00:59 | 25.01782 | -81.73367 | 10082 ft | 289 kts | 204° |
| 2026-04-24 00:59 | 24.99927 | -81.74220 | 9894 ft | 289 kts | 204° |
| 2026-04-24 00:59 | 24.98079 | -81.75073 | 9541 ft | 287 kts | 204° |
| 2026-04-24 00:59 | 24.96245 | -81.75916 | 9234 ft | 285 kts | 204° |
| 2026-04-24 01:00 | 24.94421 | -81.76751 | 8934 ft | 283 kts | 203° |
| 2026-04-24 01:00 | 24.92601 | -81.77583 | 8629 ft | 282 kts | 203° |
| 2026-04-24 01:00 | 24.90794 | -81.78412 | 8327 ft | 281 kts | 203° |
| 2026-04-24 01:00 | 24.88993 | -81.79239 | 8026 ft | 280 kts | 203° |
| 2026-04-24 01:01 | 24.87283 | -81.80239 | 7731 ft | 278 kts | 213° |
| 2026-04-24 01:01 | 24.85665 | -81.81395 | 7435 ft | 277 kts | 213° |
| 2026-04-24 01:01 | 24.84050 | -81.82543 | 7151 ft | 276 kts | 213° |
| 2026-04-24 01:01 | 24.82439 | -81.83685 | 6846 ft | 274 kts | 213° |
| 2026-04-24 01:02 | 24.80839 | -81.84818 | 6554 ft | 273 kts | 213° |
| 2026-04-24 01:02 | 24.79245 | -81.85947 | 6251 ft | 271 kts | 213° |
| 2026-04-24 01:02 | 24.77679 | -81.87057 | 5956 ft | 271 kts | 212° |
| 2026-04-24 01:02 | 24.76091 | -81.88181 | 5670 ft | 271 kts | 212° |
| 2026-04-24 01:03 | 24.74485 | -81.89314 | 5382 ft | 271 kts | 212° |
| 2026-04-24 01:03 | 24.72900 | -81.90433 | 5092 ft | 271 kts | 212° |
| 2026-04-24 01:03 | 24.71317 | -81.91551 | 4803 ft | 270 kts | 212° |
| 2026-04-24 01:03 | 24.69757 | -81.92652 | 4544 ft | 266 kts | 211° |
| 2026-04-24 01:04 | 24.68244 | -81.93721 | 4457 ft | 251 kts | 211° |
| 2026-04-24 01:04 | 24.66814 | -81.94736 | 4359 ft | 239 kts | 211° |
| 2026-04-24 01:04 | 24.65451 | -81.95703 | 4254 ft | 229 kts | 211° |
| 2026-04-24 01:04 | 24.64082 | -81.96557 | 4156 ft | 222 kts | 199° |
| 2026-04-24 01:05 | 24.62606 | -81.96891 | 3981 ft | 214 kts | 179° |
| 2026-04-24 01:05 | 24.61128 | -81.96864 | 3765 ft | 210 kts | 176° |
| 2026-04-24 01:05 | 24.59678 | -81.96840 | 3545 ft | 207 kts | 176° |
| 2026-04-24 01:05 | 24.58250 | -81.96819 | 3343 ft | 204 kts | 176° |
| 2026-04-24 01:06 | 24.56856 | -81.96723 | 3130 ft | 197 kts | 161° |
| 2026-04-24 01:06 | 24.55791 | -81.95923 | 2974 ft | 182 kts | 125° |
| 2026-04-24 01:06 | 24.55413 | -81.94645 | 2769 ft | 175 kts | 92° |
| 2026-04-24 01:06 | 24.55434 | -81.93334 | 2593 ft | 168 kts | 90° |
| 2026-04-24 01:07 | 24.55451 | -81.92075 | 2425 ft | 161 kts | 90° |
| 2026-04-24 01:07 | 24.55465 | -81.90890 | 2274 ft | 150 kts | 91° |
| 2026-04-24 01:07 | 24.55477 | -81.89789 | 2120 ft | 139 kts | 91° |
| 2026-04-24 01:07 | 24.55488 | -81.88758 | 1992 ft | 133 kts | 91° |
| 2026-04-24 01:08 | 24.55499 | -81.87762 | 1871 ft | 127 kts | 91° |
| 2026-04-24 01:08 | 24.55508 | -81.86797 | 1740 ft | 126 kts | 91° |
| 2026-04-24 01:08 | 24.55517 | -81.85842 | 1632 ft | 125 kts | 93° |
| 2026-04-24 01:08 | 24.55527 | -81.84879 | 1580 ft | 127 kts | 92° |
| 2026-04-24 01:09 | 24.55537 | -81.83900 | 1366 ft | 127 kts | 92° |
| 2026-04-24 01:09 | 24.55548 | -81.82942 | 1188 ft | 125 kts | 91° |
| 2026-04-24 01:09 | 24.55557 | -81.81999 | 1010 ft | 122 kts | 91° |
| 2026-04-24 01:09 | 24.55565 | -81.81071 | 840 ft | 123 kts | 91° |
| 2026-04-24 01:10 | 24.55574 | -81.80126 | 678 ft | 124 kts | 90° |
| 2026-04-24 01:10 | 24.55584 | -81.79188 | 519 ft | 124 kts | 90° |
| 2026-04-24 01:10 | 24.55593 | -81.78211 | 335 ft | 126 kts | 91° |
| 2026-04-24 01:10 | 24.55600 | -81.77288 | 148 ft | 120 kts | 91° |
| 2026-04-24 01:11 | 24.55610 | -81.76380 | 11 ft | 111 kts | 90° |
| 2026-04-24 01:11 | 24.55616 | -81.75781 | 12 ft | 36 kts | 90° |
| 2026-04-24 01:11 | 24.55617 | -81.75685 | 14 ft | 14 kts | 89° |
| 2026-04-24 01:11 | 24.55583 | -81.75590 | 16 ft | 14 kts | 163° |
| 2026-04-24 01:12 | 24.55531 | -81.75536 | 16 ft | 12 kts | 97° |
| 2026-04-24 01:12 | 24.55510 | -81.75453 | 15 ft | 12 kts | 158° |
| 2026-04-24 01:12 | 24.55442 | -81.75422 | 14 ft | 11 kts | 92° |
| 2026-04-24 01:12 | 24.55421 | -81.75353 | 14 ft | 1 kts | 154° |